Time;durP1;ratioP1;P1;durP2;ratioP2;P2;SDS_P1;SDS_P2;PMS_P1;PMS_P2;Temp;Humidity;BMP_temperature;BMP_pressure;BME280_temperature;BME280_humidity;BME280_pressure;Samples;Min_cycle;Max_cycle;Signal;HPM_P1;HPM_P2
2023/10/19 00:01:18;;;;;;;9.13;7.97;;;11.50;78.60;;;12.98;55.48;99901.16;3081836;46;20432;-67
2023/10/19 00:03:49;;;;;;;9.63;8.03;;;11.50;79.00;;;12.95;56.17;99891.03;3082848;46;20436;-66
2023/10/19 00:06:18;;;;;;;9.63;7.47;;;11.40;79.50;;;12.88;56.87;99896.31;3082726;46;20428;-67
2023/10/19 00:08:46;;;;;;;10.13;8.67;;;11.40;80.30;;;12.82;57.62;99891.06;3082497;46;20468;-67
2023/10/19 00:11:27;;;;;;;9.23;7.97;;;11.40;81.10;;;12.77;57.89;99888.25;3082040;46;21040;-66
2023/10/19 00:13:57;;;;;;;9.57;8.47;;;11.30;81.70;;;12.71;58.13;99892.56;3083102;46;20507;-68
2023/10/19 00:16:29;;;;;;;11.83;8.27;;;11.30;82.10;;;12.61;58.63;99891.34;3082095;46;20455;-66
2023/10/19 00:18:59;;;;;;;11.17;8.60;;;11.30;82.60;;;12.50;59.66;99887.56;3082383;46;20438;-67
2023/10/19 00:21:28;;;;;;;10.40;8.90;;;11.20;83.30;;;12.37;60.60;99886.75;3082344;46;20427;-67
2023/10/19 00:24:03;;;;;;;11.50;9.30;;;11.10;84.10;;;12.29;61.04;99884.34;3082646;46;20467;-67
2023/10/19 00:26:31;;;;;;;15.17;9.60;;;11.00;84.80;;;12.21;61.19;99875.66;3082514;46;20447;-67
2023/10/19 00:29:12;;;;;;;12.03;9.10;;;11.00;85.00;;;12.19;61.93;99877.66;3082321;46;20427;-67
2023/10/19 00:31:42;;;;;;;10.97;9.57;;;10.90;86.00;;;12.11;62.55;99877.06;3082028;46;20471;-68
2023/10/19 00:34:13;;;;;;;10.93;9.80;;;10.80;86.60;;;12.06;62.63;99880.31;3082504;46;20432;-67
2023/10/19 00:36:41;;;;;;;10.60;9.53;;;10.80;87.10;;;12.01;63.00;99874.03;3082355;46;20435;-67
2023/10/19 00:39:15;;;;;;;13.40;9.63;;;10.70;87.40;;;11.97;63.41;99859.66;3082324;46;20501;-67
2023/10/19 00:41:45;;;;;;;10.63;9.53;;;10.60;88.00;;;11.95;63.42;99867.78;3082002;46;20447;-66
2023/10/19 00:45:04;;;;;;;11.20;9.97;;;10.60;88.50;;;11.91;63.70;99856.00;3082494;46;20485;-67
2023/10/19 00:47:13;;;;;;;12.53;9.83;;;10.60;89.00;;;11.85;64.36;99854.19;3081497;46;21032;-67
2023/10/19 00:49:44;;;;;;;13.33;9.63;;;10.50;89.50;;;11.83;64.89;99848.31;3081322;46;20444;-67
2023/10/19 00:52:23;;;;;;;14.13;10.50;;;10.50;90.00;;;11.83;64.98;99845.69;3081767;46;20455;-67
2023/10/19 00:54:55;;;;;;;13.23;10.97;;;10.40;90.30;;;11.79;65.71;99841.81;3081932;46;20436;-68
2023/10/19 00:57:34;;;;;;;11.63;10.43;;;10.40;90.60;;;11.74;66.30;99843.44;3081322;46;20474;-67
2023/10/19 01:00:12;;;;;;;13.23;10.70;;;10.40;91.00;;;11.67;66.47;99835.50;3081421;46;20596;-68
2023/10/19 01:02:45;;;;;;;12.63;10.83;;;10.30;90.90;;;11.64;66.54;99843.00;3082154;46;21055;-68
2023/10/19 01:05:14;;;;;;;14.77;11.57;;;10.30;91.10;;;11.61;66.85;99828.41;3081921;46;20428;-65
2023/10/19 01:07:44;;;;;;;13.70;11.57;;;10.30;91.30;;;11.60;66.45;99826.00;3081824;46;20436;-67
2023/10/19 01:10:20;;;;;;;11.83;10.03;;;10.20;91.20;;;11.58;66.64;99818.28;3081223;46;21000;-67
2023/10/19 01:12:51;;;;;;;13.33;11.53;;;10.20;91.30;;;11.60;66.33;99816.25;3082267;46;20498;-69
2023/10/19 01:17:58;;;;;;;13.00;11.20;;;10.20;91.60;;;11.57;67.15;99812.22;3082031;46;20459;-67
2023/10/19 01:25:58;;;;;;;14.47;11.63;;;10.10;91.90;;;11.54;67.11;99801.25;3081784;46;21122;-67
2023/10/19 01:34:00;;;;;;;14.33;11.73;;;10.10;92.30;;;11.49;67.69;99793.97;3082028;46;20465;-67
2023/10/19 01:36:32;;;;;;;13.20;11.47;;;10.10;92.00;;;11.51;67.60;99785.84;3081295;46;20482;-67
2023/10/19 01:39:01;;;;;;;13.37;11.90;;;10.10;92.10;;;11.53;67.47;99778.53;3081555;46;20436;-67
2023/10/19 01:41:32;;;;;;;17.37;12.87;;;10.10;92.20;;;11.52;67.56;99772.50;3081570;46;20490;-67
2023/10/19 01:44:06;;;;;;;15.67;11.77;;;10.10;92.10;;;11.52;67.61;99761.13;3081717;46;20549;-67
2023/10/19 01:46:35;;;;;;;14.03;12.03;;;10.10;92.30;;;11.53;67.72;99760.91;3081379;46;20497;-65
2023/10/19 01:49:08;;;;;;;17.60;12.07;;;10.10;92.30;;;11.56;67.51;99751.78;3081328;46;20524;-66
2023/10/19 01:51:40;;;;;;;17.33;13.17;;;10.10;92.50;;;11.60;67.80;99742.44;3081566;46;20508;-67
2023/10/19 01:54:09;;;;;;;16.47;13.00;;;10.10;92.50;;;11.62;67.78;99745.72;3081756;46;20447;-66
2023/10/19 01:56:38;;;;;;;14.60;13.00;;;10.10;92.50;;;11.61;67.65;99741.44;3080384;46;20478;-67
2023/10/19 01:59:09;;;;;;;15.97;12.90;;;10.10;92.30;;;11.57;67.61;99737.59;3081015;46;20428;-64
2023/10/19 02:01:37;;;;;;;17.27;12.50;;;10.10;92.30;;;11.54;67.62;99724.84;3081525;46;20427;-67
2023/10/19 02:04:09;;;;;;;13.63;12.23;;;10.10;92.30;;;11.50;67.91;99721.00;3081566;46;20450;-67
2023/10/19 02:06:38;;;;;;;17.83;12.53;;;10.10;92.40;;;11.51;67.92;99717.34;3080376;46;21147;-67
2023/10/19 02:11:48;;;;;;;15.53;12.70;;;10.10;92.50;;;11.55;68.02;99710.66;3081024;46;20460;-67
2023/10/19 02:14:21;;;;;;;13.83;12.37;;;10.10;92.70;;;11.57;67.89;99701.53;3081384;46;20588;-66
2023/10/19 02:16:54;;;;;;;15.40;12.97;;;10.10;92.60;;;11.58;67.61;99697.03;3080851;46;20428;-68
2023/10/19 02:19:26;;;;;;;18.60;13.23;;;10.10;92.60;;;11.55;67.84;99687.72;3081200;46;21025;-67
2023/10/19 02:22:04;;;;;;;17.20;13.53;;;10.10;92.60;;;11.52;68.13;99682.91;3080597;46;20541;-67
2023/10/19 02:24:32;;;;;;;20.63;14.67;;;10.10;92.60;;;11.47;68.10;99677.44;3081598;46;20606;-67
2023/10/19 02:27:01;;;;;;;17.53;13.40;;;10.00;92.60;;;11.43;68.19;99678.06;3080933;46;20495;-67
2023/10/19 02:29:30;;;;;;;18.53;13.37;;;10.00;92.60;;;11.44;68.46;99674.38;3080930;46;20439;-65
2023/10/19 02:32:05;;;;;;;17.43;13.27;;;10.00;92.70;;;11.45;68.36;99681.28;3080944;46;20450;-67
2023/10/19 02:34:34;;;;;;;15.80;13.70;;;10.00;92.70;;;11.45;68.46;99674.19;3081314;46;20423;-66
2023/10/19 02:37:03;;;;;;;16.93;12.83;;;10.00;92.70;;;11.45;68.28;99666.28;3080746;46;21103;-67
2023/10/19 02:39:32;;;;;;;16.07;14.37;;;10.00;92.80;;;11.45;68.51;99662.84;3081064;46;21001;-67
2023/10/19 02:42:01;;;;;;;16.30;14.20;;;10.00;92.80;;;11.43;68.40;99667.50;3080873;46;20448;-66
2023/10/19 02:44:30;;;;;;;15.77;13.20;;;10.00;92.80;;;11.40;68.47;99668.72;3081341;46;20462;-67
2023/10/19 02:46:59;;;;;;;15.03;13.47;;;10.00;92.70;;;11.37;68.73;99665.69;3080234;46;21018;-67
2023/10/19 02:49:29;;;;;;;17.17;14.37;;;9.90;93.40;;;11.34;69.21;99674.00;3080507;46;20439;-67
2023/10/19 02:52:03;;;;;;;17.00;14.90;;;9.90;93.60;;;11.31;69.16;99674.41;3080827;46;20427;-67
2023/10/19 02:54:34;;;;;;;16.53;14.30;;;9.90;93.60;;;11.29;69.25;99660.66;3081250;46;20427;-67
2023/10/19 02:57:06;;;;;;;16.47;14.60;;;9.90;93.70;;;11.29;69.28;99671.19;3079540;46;20423;-67
2023/10/19 02:59:36;;;;;;;18.07;14.57;;;9.90;93.70;;;11.28;69.47;99665.09;3079580;46;20456;-67
2023/10/19 03:02:17;;;;;;;18.07;14.70;;;9.90;93.90;;;11.31;69.24;99659.44;3080570;46;21077;-65
2023/10/19 03:04:45;;;;;;;17.90;14.60;;;9.80;93.80;;;11.32;69.42;99658.41;3080826;46;20533;-67
2023/10/19 03:07:15;;;;;;;19.40;15.00;;;9.80;93.80;;;11.32;69.49;99654.94;3080735;46;20456;-66
2023/10/19 03:09:53;;;;;;;21.73;16.97;;;9.80;93.80;;;11.32;69.35;99649.69;3078613;46;20443;-68
2023/10/19 03:12:25;;;;;;;20.10;15.90;;;9.80;93.80;;;11.31;69.37;99648.09;3080498;46;21103;-66
2023/10/19 03:14:54;;;;;;;16.53;14.57;;;9.90;93.90;;;11.32;69.58;99650.50;3081019;46;20429;-66
2023/10/19 03:17:24;;;;;;;18.30;15.57;;;9.80;94.30;;;11.37;69.25;99652.50;3082008;46;20459;-67
2023/10/19 03:19:53;;;;;;;20.60;16.67;;;9.80;94.00;;;11.39;69.36;99650.47;3082594;46;20476;-67
2023/10/19 03:22:38;;;;;;;21.77;15.43;;;9.90;94.10;;;11.40;69.12;99642.38;3082869;46;20423;-68
2023/10/19 03:27:56;;;;;;;17.93;14.27;;;9.90;94.00;;;11.43;69.29;99623.50;3082626;46;20427;-67
2023/10/19 03:30:25;;;;;;;20.30;16.90;;;9.90;93.90;;;11.43;69.11;99620.09;3082465;46;20470;-69
2023/10/19 03:32:53;;;;;;;18.40;15.30;;;9.90;93.90;;;11.41;69.17;99607.09;3082950;46;20496;-68
2023/10/19 03:35:22;;;;;;;18.53;15.53;;;9.90;93.90;;;11.42;69.27;99600.00;3083367;46;20451;-68
2023/10/19 03:37:51;;;;;;;19.20;15.40;;;9.90;94.00;;;11.43;68.98;99588.47;3082350;46;20482;-67
2023/10/19 03:40:29;;;;;;;22.93;16.50;;;9.90;93.90;;;11.43;69.17;99583.19;3082249;46;20455;-67
2023/10/19 03:43:16;;;;;;;17.93;14.57;;;9.90;94.00;;;11.43;69.17;99593.75;3081990;46;21088;-69
2023/10/19 03:45:52;;;;;;;19.37;15.50;;;9.90;94.00;;;11.43;69.15;99593.75;3081578;46;20493;-67
2023/10/19 03:48:30;;;;;;;17.50;15.27;;;9.90;93.90;;;11.44;68.98;99601.44;3081505;46;20940;-67
2023/10/19 03:51:02;;;;;;;19.37;16.53;;;9.90;94.10;;;11.46;69.25;99609.94;3082601;46;20583;-67
2023/10/19 03:53:32;;;;;;;18.43;16.43;;;9.90;94.00;;;11.49;69.03;99612.16;3083157;46;20422;-67
2023/10/19 03:56:10;;;;;;;19.27;15.83;;;9.90;94.10;;;11.52;69.04;99608.28;3082413;46;20485;-67
2023/10/19 03:58:41;;;;;;;21.30;16.50;;;9.90;94.10;;;11.53;68.74;99610.72;3082003;46;20575;-66
2023/10/19 04:01:10;;;;;;;18.03;16.13;;;10.00;93.50;;;11.53;68.76;99609.91;3082614;46;21091;-67
2023/10/19 04:03:39;;;;;;;20.50;16.17;;;10.00;93.50;;;11.50;68.81;99597.16;3082605;46;20459;-67
2023/10/19 04:06:13;;;;;;;17.70;15.47;;;10.00;93.40;;;11.46;68.79;99583.56;3082898;46;21043;-66
2023/10/19 04:08:50;;;;;;;19.07;16.03;;;9.90;93.90;;;11.45;68.96;99578.53;3082151;46;20618;-67
2023/10/19 04:11:21;;;;;;;18.93;16.07;;;9.90;93.90;;;11.46;68.87;99588.84;3082719;46;20578;-67
2023/10/19 04:13:52;;;;;;;18.20;16.03;;;9.90;93.90;;;11.47;68.93;99590.47;3082758;46;20527;-68
2023/10/19 04:16:21;;;;;;;18.73;16.53;;;9.90;93.90;;;11.48;69.08;99586.81;3082563;46;20424;-67
2023/10/19 04:18:49;;;;;;;22.10;16.20;;;9.90;94.00;;;11.52;68.92;99582.75;3081606;46;20430;-68
2023/10/19 04:21:18;;;;;;;19.33;16.27;;;9.90;94.10;;;11.56;69.09;99572.59;3082883;46;20427;-67
2023/10/19 04:23:46;;;;;;;18.07;16.03;;;9.90;94.20;;;11.61;69.05;99578.03;3082330;46;21026;-67
2023/10/19 04:26:18;;;;;;;22.80;16.27;;;10.00;93.70;;;11.59;68.78;99572.19;3082673;46;20434;-66
2023/10/19 04:28:49;;;;;;;20.67;17.07;;;10.00;93.50;;;11.57;68.85;99564.50;3081884;46;20472;-67
2023/10/19 04:31:18;;;;;;;20.20;17.23;;;10.00;93.50;;;11.53;68.85;99565.09;3082478;46;20461;-67
2023/10/19 04:33:47;;;;;;;19.40;16.93;;;10.00;93.30;;;11.52;68.66;99564.31;3082340;46;20454;-65
2023/10/19 04:36:19;;;;;;;18.00;16.10;;;10.00;93.40;;;11.50;68.76;99560.28;3082509;46;20502;-67
2023/10/19 04:38:47;;;;;;;18.60;16.60;;;10.00;93.40;;;11.49;68.84;99562.09;3081429;46;21084;-65
2023/10/19 04:41:16;;;;;;;21.07;16.60;;;10.00;93.40;;;11.49;68.85;99561.28;3082458;46;20427;-67
2023/10/19 04:43:49;;;;;;;21.60;16.30;;;10.00;93.40;;;11.47;69.04;99558.03;3082201;46;20431;-67
2023/10/19 04:46:18;;;;;;;20.83;17.23;;;10.00;93.40;;;11.48;68.93;99549.13;3082403;46;20485;-67
2023/10/19 04:48:47;;;;;;;21.60;15.67;;;9.90;93.90;;;11.48;69.10;99544.66;3081596;46;20431;-67
2023/10/19 04:51:17;;;;;;;19.63;16.40;;;9.90;94.10;;;11.50;69.03;99547.09;3082455;46;20478;-67
2023/10/19 04:53:46;;;;;;;22.80;16.50;;;9.90;94.00;;;11.52;69.02;99550.31;3082059;46;20530;-67
2023/10/19 04:56:16;;;;;;;16.80;15.00;;;9.90;94.20;;;11.51;69.06;99548.69;3081609;46;20565;-67
2023/10/19 04:58:45;;;;;;;17.27;15.00;;;9.90;94.10;;;11.48;68.92;99557.03;3081469;46;20431;-67
2023/10/19 05:01:15;;;;;;;18.20;15.87;;;10.00;93.50;;;11.41;69.31;99557.03;3081662;46;20450;-67
2023/10/19 05:03:44;;;;;;;18.93;16.47;;;9.90;94.00;;;11.35;69.38;99549.19;3082370;46;20456;-67
2023/10/19 05:06:13;;;;;;;18.70;16.57;;;9.90;94.00;;;11.29;69.90;99550.03;3082135;46;20509;-67
2023/10/19 05:08:41;;;;;;;22.13;17.57;;;9.90;94.20;;;11.26;69.99;99555.69;3081320;46;20429;-67
2023/10/19 05:11:10;;;;;;;19.70;16.87;;;9.80;94.20;;;11.20;69.97;99545.97;3081767;46;20471;-67
2023/10/19 05:13:39;;;;;;;21.60;16.83;;;9.80;94.20;;;11.18;70.05;99551.47;3081724;46;20435;-67
2023/10/19 05:16:07;;;;;;;23.57;17.47;;;9.80;94.40;;;11.20;70.35;99551.25;3082081;46;20429;-67
2023/10/19 05:18:36;;;;;;;20.83;16.93;;;9.70;94.50;;;11.21;70.38;99552.88;3081123;46;20508;-67
2023/10/19 05:21:05;;;;;;;19.10;16.77;;;9.70;94.70;;;11.22;70.36;99549.25;3081531;46;20474;-67
2023/10/19 05:23:33;;;;;;;21.67;17.90;;;9.70;94.70;;;11.26;70.74;99553.06;3081838;46;20478;-67
2023/10/19 05:26:06;;;;;;;23.53;17.90;;;9.70;94.90;;;11.28;70.61;99553.66;3081965;46;20540;-66
2023/10/19 05:28:35;;;;;;;20.03;17.57;;;9.70;94.90;;;11.29;70.50;99555.28;3081134;46;20489;-69
2023/10/19 05:31:04;;;;;;;17.20;15.07;;;9.70;94.90;;;11.29;70.40;99555.28;3081489;46;20603;-67
2023/10/19 05:33:32;;;;;;;19.80;15.90;;;9.70;94.80;;;11.30;70.38;99551.63;3081608;46;20563;-69
2023/10/19 05:36:01;;;;;;;21.87;16.57;;;9.80;94.80;;;11.35;70.68;99554.44;3081967;46;20573;-67
2023/10/19 05:38:31;;;;;;;19.73;16.80;;;9.80;95.10;;;11.34;70.89;99552.81;3081165;46;21153;-66
2023/10/19 05:41:00;;;;;;;19.63;15.57;;;9.80;95.00;;;11.37;70.48;99555.03;3080523;46;20443;-68
2023/10/19 05:43:28;;;;;;;19.40;16.23;;;9.80;95.00;;;11.35;70.35;99549.19;3081553;46;20528;-68
2023/10/19 05:45:57;;;;;;;17.87;15.70;;;9.80;94.90;;;11.30;70.14;99551.63;3081825;46;20423;-67
2023/10/19 05:48:26;;;;;;;17.30;15.07;;;9.80;94.70;;;11.27;70.62;99549.41;3080810;46;20460;-67
2023/10/19 05:50:54;;;;;;;17.77;14.80;;;9.80;94.80;;;11.25;70.50;99551.44;3081356;46;20569;-67
2023/10/19 05:53:23;;;;;;;15.90;14.27;;;9.80;94.70;;;11.24;70.70;99550.66;3081403;46;20467;-67
2023/10/19 05:55:51;;;;;;;16.83;14.57;;;9.80;94.80;;;11.23;70.78;99545.56;3081327;46;20950;-67
2023/10/19 05:58:20;;;;;;;20.83;16.93;;;9.70;94.90;;;11.23;70.72;99542.94;3080772;46;20460;-67
2023/10/19 06:00:51;;;;;;;15.87;13.60;;;9.70;94.90;;;11.22;70.71;99549.25;3081224;46;20439;-67
2023/10/19 06:03:20;;;;;;;19.00;16.13;;;9.70;94.90;;;11.20;70.84;99545.97;3081285;46;20431;-68
2023/10/19 06:05:48;;;;;;;16.77;14.17;;;9.70;95.00;;;11.20;70.85;99551.25;3081805;46;20504;-67
2023/10/19 06:08:17;;;;;;;13.83;12.43;;;9.70;95.30;;;11.19;70.88;99549.66;3080468;43;20564;-68
2023/10/19 06:10:53;;;;;;;17.07;14.37;;;9.70;95.00;;;11.17;71.04;99546.41;3081223;46;20439;-67
2023/10/19 06:13:22;;;;;;;15.57;12.77;;;9.70;95.10;;;11.19;71.16;99549.66;3081507;46;20443;-67
2023/10/19 06:15:51;;;;;;;13.63;12.23;;;9.70;95.20;;;11.17;71.01;99546.41;3081388;46;20994;-68
2023/10/19 06:18:19;;;;;;;15.00;13.03;;;9.70;95.10;;;11.17;71.13;99546.41;3080475;46;20629;-69
2023/10/19 06:20:50;;;;;;;17.43;13.67;;;9.70;95.10;;;11.20;71.09;99543.34;3080856;46;20446;-66
2023/10/19 06:23:19;;;;;;;14.57;12.97;;;9.70;95.20;;;11.20;70.96;99545.97;3081296;46;20459;-69
2023/10/19 06:25:48;;;;;;;16.63;13.17;;;9.70;95.20;;;11.20;71.23;99544.16;3081193;46;21035;-67
2023/10/19 06:28:17;;;;;;;15.13;12.87;;;9.70;95.20;;;11.21;71.13;99544.97;3080779;46;20521;-67
2023/10/19 06:30:48;;;;;;;13.37;11.97;;;9.70;95.20;;;11.24;71.38;99541.94;3080899;46;20564;-66
2023/10/19 06:33:16;;;;;;;14.10;12.27;;;9.70;95.50;;;11.28;71.18;99537.84;3080929;46;20427;-67
2023/10/19 06:35:44;;;;;;;14.07;12.57;;;9.70;95.50;;;11.29;71.04;99550.03;3081408;46;20434;-67
2023/10/19 06:38:13;;;;;;;13.33;11.83;;;9.70;95.20;;;11.26;70.85;99547.81;3080789;46;20440;-67
2023/10/19 06:40:44;;;;;;;15.57;12.03;;;9.70;95.10;;;11.26;70.98;99547.81;3080781;46;20472;-68
2023/10/19 06:43:12;;;;;;;13.37;11.97;;;9.70;95.20;;;11.25;71.02;99548.81;3081015;46;20478;-67
2023/10/19 06:45:41;;;;;;;14.80;13.23;;;9.70;95.10;;;11.25;71.26;99548.81;3080873;46;20491;-67
2023/10/19 06:48:09;;;;;;;14.33;12.43;;;9.70;95.30;;;11.25;71.22;99543.53;3080343;46;20952;-67
2023/10/19 06:50:38;;;;;;;14.30;12.63;;;9.80;95.30;;;11.27;71.23;99552.03;3080405;46;20468;-66
2023/10/19 06:53:08;;;;;;;14.27;12.77;;;9.70;95.30;;;11.28;71.19;99543.13;3080898;46;21102;-67
2023/10/19 06:55:36;;;;;;;13.47;12.07;;;9.70;95.20;;;11.28;71.28;99549.22;3080888;46;20431;-66
2023/10/19 06:58:05;;;;;;;12.17;10.83;;;9.70;95.20;;;11.27;71.05;99541.50;3080133;46;21097;-66
2023/10/19 07:00:34;;;;;;;16.37;13.50;;;9.70;95.20;;;11.25;71.14;99546.97;3080178;46;21025;-67
2023/10/19 07:03:03;;;;;;;15.67;12.33;;;9.70;95.20;;;11.24;71.38;99542.75;3080794;46;20431;-67
2023/10/19 07:05:32;;;;;;;13.53;11.60;;;9.70;95.30;;;11.23;71.45;99540.31;3080570;46;20431;-67
2023/10/19 07:08:01;;;;;;;13.90;12.50;;;9.70;95.20;;;11.24;71.19;99536.66;3080242;46;20557;-67
2023/10/19 07:10:30;;;;;;;12.20;10.80;;;9.70;95.20;;;11.22;71.03;99528.16;3080494;46;21016;-67
2023/10/19 07:12:58;;;;;;;12.87;11.57;;;9.70;95.20;;;11.19;71.23;99529.41;3080804;46;20462;-66
2023/10/19 07:15:28;;;;;;;13.20;11.43;;;9.70;95.20;;;11.18;71.14;99532.22;3080473;46;21002;-67
2023/10/19 07:17:56;;;;;;;13.60;11.20;;;9.70;95.20;;;11.18;71.44;99537.47;3080263;46;20430;-67
2023/10/19 07:20:26;;;;;;;13.40;11.80;;;9.70;95.30;;;11.18;71.72;99538.28;3080209;46;20526;-67
2023/10/19 07:23:00;;;;;;;12.03;10.53;;;9.70;95.40;;;11.18;71.75;99526.94;3080086;46;20451;-64
2023/10/19 07:25:29;;;;;;;11.67;10.47;;;9.70;95.40;;;11.19;71.71;99534.66;3080771;46;20454;-68
2023/10/19 07:27:59;;;;;;;13.70;11.77;;;9.70;95.40;;;11.22;71.73;99530.81;3078793;46;21077;-67
2023/10/19 07:30:28;;;;;;;12.97;10.63;;;9.70;95.60;;;11.24;71.60;99532.22;3079596;46;20514;-67
2023/10/19 07:32:59;;;;;;;12.60;11.27;;;9.70;95.60;;;11.28;71.46;99537.84;3080182;46;20463;-67
2023/10/19 07:35:28;;;;;;;12.20;10.90;;;9.70;95.60;;;11.26;71.34;99535.44;3080114;46;20459;-67
2023/10/19 07:37:56;;;;;;;12.53;11.20;;;9.70;95.40;;;11.27;71.34;99530.97;3080161;46;20482;-67
2023/10/19 07:40:25;;;;;;;13.60;12.20;;;9.70;95.50;;;11.25;71.47;99538.28;3079855;46;20564;-67
2023/10/19 07:42:56;;;;;;;14.60;11.77;;;9.70;95.50;;;11.23;71.59;99540.31;3080150;46;20448;-69
2023/10/19 07:45:25;;;;;;;12.60;11.07;;;9.70;95.50;;;11.25;71.69;99538.28;3080138;46;20424;-67
2023/10/19 07:47:53;;;;;;;14.27;12.77;;;9.70;95.70;;;11.26;71.61;99545.16;3080399;46;20445;-69
2023/10/19 07:50:22;;;;;;;12.27;11.07;;;9.70;95.70;;;11.26;71.82;99545.16;3080415;46;20485;-67
2023/10/19 07:52:53;;;;;;;11.73;10.00;;;9.70;95.70;;;11.28;71.78;99543.13;3080343;46;20610;-71
2023/10/19 07:55:25;;;;;;;11.90;10.70;;;9.70;95.70;;;11.27;71.96;99558.13;3077803;43;20456;-66
2023/10/19 07:57:54;;;;;;;12.83;11.53;;;9.70;95.80;;;11.27;71.99;99549.41;3079489;46;20491;-69
2023/10/19 08:00:23;;;;;;;11.40;10.03;;;9.70;95.80;;;11.26;72.09;99545.97;3079272;46;20438;-69
2023/10/19 08:02:53;;;;;;;13.57;10.67;;;9.70;95.80;;;11.29;72.08;99544.75;3077598;46;20523;-69
2023/10/19 08:05:22;;;;;;;12.53;10.90;;;9.70;95.80;;;11.32;72.16;99554.84;3079972;46;20457;-67
2023/10/19 08:07:51;;;;;;;12.63;10.63;;;9.70;95.90;;;11.32;71.84;99563.56;3082715;46;21004;-69
2023/10/19 08:10:20;;;;;;;12.60;10.93;;;9.70;95.90;;;11.34;71.99;99553.63;3081900;43;21036;-67
2023/10/19 08:12:50;;;;;;;11.83;10.23;;;9.80;95.90;;;11.33;72.20;99556.47;3080871;46;20618;-69
2023/10/19 08:15:31;;;;;;;11.20;9.97;;;9.80;95.90;;;11.32;72.00;99546.94;3076256;46;20497;-68
2023/10/19 08:17:59;;;;;;;10.37;9.27;;;9.80;95.90;;;11.34;72.15;99542.28;3077858;46;20459;-68
2023/10/19 08:20:31;;;;;;;10.13;9.13;;;9.80;96.00;;;11.37;72.21;99562.94;3075600;46;20454;-67
2023/10/19 08:23:05;;;;;;;10.63;9.53;;;9.80;96.10;;;11.37;72.14;99555.03;3080651;46;20439;-69
2023/10/19 08:25:34;;;;;;;10.53;9.07;;;9.80;96.10;;;11.39;72.35;99553.00;3080536;46;20537;-68
2023/10/19 08:28:22;;;;;;;11.50;9.40;;;9.80;96.00;;;11.38;72.40;99541.69;3081805;46;20585;-69
2023/10/19 08:31:00;;;;;;;9.17;8.27;;;9.80;96.10;;;11.41;72.60;99543.88;3081358;46;21111;-68
2023/10/19 08:33:29;;;;;;;10.27;8.93;;;9.90;96.20;;;11.41;72.30;99543.88;3080964;46;20475;-69
2023/10/19 08:35:59;;;;;;;9.50;8.60;;;9.90;96.10;;;11.44;72.48;99550.56;3078443;46;21124;-69
2023/10/19 08:38:28;;;;;;;9.23;7.93;;;9.90;96.20;;;11.44;72.38;99553.19;3079149;46;21310;-69
2023/10/19 08:40:58;;;;;;;8.90;7.97;;;9.90;96.10;;;11.39;72.52;99556.44;3079591;46;20598;-68
2023/10/19 08:43:28;;;;;;;8.73;7.90;;;9.90;96.10;;;11.38;72.58;99556.66;3080336;46;21113;-68
2023/10/19 08:45:57;;;;;;;10.47;9.33;;;9.90;96.00;;;11.39;72.54;99550.38;3078748;46;20440;-69
2023/10/19 08:48:25;;;;;;;8.87;7.97;;;9.90;96.10;;;11.40;72.39;99563.34;3079280;46;20533;-69
2023/10/19 08:50:55;;;;;;;8.13;7.17;;;9.90;96.20;;;11.40;72.79;99557.25;3080688;46;20505;-68
2023/10/19 08:53:24;;;;;;;7.60;6.83;;;9.90;96.20;;;11.42;72.51;99555.22;3082358;46;20455;-68
2023/10/19 08:55:55;;;;;;;9.00;8.10;;;9.90;96.20;;;11.45;72.85;99552.19;3078595;46;20595;-69
2023/10/19 08:58:24;;;;;;;8.93;8.10;;;9.90;96.40;;;11.47;72.75;99548.31;3080288;46;20431;-68
2023/10/19 09:00:56;;;;;;;17.47;15.30;;;9.90;96.40;;;11.51;72.86;99549.50;3080950;46;20443;-67
2023/10/19 09:03:25;;;;;;;10.90;9.23;;;9.90;96.40;;;11.59;72.87;99556.38;3081644;46;20427;-67
2023/10/19 09:05:56;;;;;;;8.83;7.93;;;10.00;96.10;;;11.64;72.57;99551.28;3081488;46;20433;-68
2023/10/19 09:08:24;;;;;;;11.00;9.80;;;10.00;96.00;;;11.68;72.65;99547.22;3082379;46;20528;-67
2023/10/19 09:10:53;;;;;;;8.97;8.07;;;10.00;95.90;;;11.70;72.66;99547.00;3080912;46;20439;-68
2023/10/19 09:13:22;;;;;;;8.60;7.77;;;10.10;96.00;;;11.72;72.47;99550.25;3080737;43;20517;-68
2023/10/19 09:16:04;;;;;;;8.80;7.87;;;10.10;95.90;;;11.74;72.49;99553.50;3078789;46;21027;-69
2023/10/19 09:18:33;;;;;;;7.43;6.73;;;10.10;95.90;;;11.77;72.32;99559.13;3080272;46;20453;-66
2023/10/19 09:21:07;;;;;;;6.90;6.20;;;10.10;95.90;;;11.76;71.93;99557.53;3081247;46;20464;-68
2023/10/19 09:23:36;;;;;;;7.57;5.53;;;10.20;95.80;;;11.77;72.25;99553.88;3081775;46;21104;-68
2023/10/19 09:26:06;;;;;;;7.17;6.47;;;10.20;95.80;;;11.78;72.38;99550.22;3079431;46;20536;-67
2023/10/19 09:28:37;;;;;;;6.60;5.90;;;10.20;95.70;;;11.81;72.32;99546.34;3081877;46;20455;-70
2023/10/19 09:31:09;;;;;;;6.40;5.87;;;10.20;95.80;;;11.78;72.13;99552.84;3080426;46;20466;-67
2023/10/19 09:33:41;;;;;;;6.77;5.63;;;10.20;95.60;;;11.76;72.13;99560.19;3080576;46;20478;-68
2023/10/19 09:36:15;;;;;;;6.17;5.50;;;10.20;95.50;;;11.75;72.30;99563.81;3079944;46;20467;-68
2023/10/19 09:38:53;;;;;;;6.60;5.90;;;10.20;95.60;;;11.75;72.21;99542.72;3080901;46;20535;-66
2023/10/19 09:41:22;;;;;;;6.20;5.60;;;10.20;95.60;;;11.80;72.47;99545.53;3080857;46;20423;-69
2023/10/19 09:43:51;;;;;;;5.97;5.37;;;10.20;95.80;;;11.84;72.51;99549.38;3081619;46;20426;-67
2023/10/19 09:46:41;;;;;;;6.00;5.40;;;10.20;95.90;;;11.84;72.34;99548.59;3080434;46;20452;-70
2023/10/19 09:49:18;;;;;;;9.10;8.20;;;10.30;95.90;;;11.82;72.24;99556.69;3079784;46;20546;-70
2023/10/19 09:51:49;;;;;;;5.80;5.30;;;10.30;95.70;;;11.82;72.36;99556.69;3079528;46;21081;-69
2023/10/19 09:55:33;;;;;;;5.17;4.70;;;10.30;95.70;;;11.80;72.33;99552.63;3080923;46;20451;-68
2023/10/19 09:58:25;;;;;;;10.73;9.60;;;10.30;95.70;;;11.81;72.56;99549.81;3080082;46;20452;-69
2023/10/19 10:00:57;;;;;;;6.17;5.57;;;10.30;95.80;;;11.88;72.56;99555.84;3079718;46;20450;-68
2023/10/19 10:03:47;;;;;;;6.00;5.50;;;10.30;95.90;;;11.88;72.42;99550.56;3081053;46;20998;-67
2023/10/19 10:06:50;;;;;;;5.80;5.20;;;10.40;95.90;;;11.93;72.35;99553.34;3081213;46;21057;-68
2023/10/19 10:09:23;;;;;;;6.03;5.43;;;10.40;95.90;;;11.94;72.51;99541.00;3079956;46;20492;-70
2023/10/19 10:11:55;;;;;;;6.57;5.23;;;10.40;95.90;;;11.99;72.58;99541.97;3080372;46;20456;-68
2023/10/19 10:14:29;;;;;;;6.13;5.13;;;10.40;96.00;;;12.05;72.71;99546.38;3079105;46;20480;-69
2023/10/19 10:17:09;;;;;;;6.30;5.70;;;10.40;96.10;;;12.10;72.28;99548.38;3080804;46;21046;-68
2023/10/19 10:19:38;;;;;;;10.90;9.43;;;10.40;96.10;;;12.16;72.48;99547.53;3080306;46;20521;-68
2023/10/19 10:22:20;;;;;;;4.87;4.33;;;10.50;96.10;;;12.16;72.03;99539.63;3078762;46;20431;-67
2023/10/19 10:24:56;;;;;;;5.07;4.57;;;10.50;95.90;;;12.16;71.98;99534.34;3081302;46;20469;-68
2023/10/19 10:27:25;;;;;;;4.60;4.20;;;10.60;95.90;;;12.18;71.95;99538.41;3080169;46;20527;-68
2023/10/19 10:30:01;;;;;;;4.43;4.03;;;10.60;96.00;;;12.20;71.90;99533.72;3081362;46;20438;-67
2023/10/19 10:32:56;;;;;;;4.20;3.90;;;10.60;95.90;;;12.15;71.73;99520.34;3080980;46;21093;-69
2023/10/19 10:35:39;;;;;;;4.20;3.77;;;10.60;95.80;;;12.20;71.98;99523.16;3080678;46;20423;-68
2023/10/19 10:38:12;;;;;;;4.53;3.93;;;10.60;95.90;;;12.24;72.13;99524.34;3080982;46;20440;-67
2023/10/19 10:40:49;;;;;;;4.00;3.70;;;10.60;95.80;;;12.21;71.87;99521.34;3079228;46;20440;-68
2023/10/19 10:43:21;;;;;;;20.83;15.13;;;10.60;95.60;;;12.20;71.78;99512.59;3080967;46;20432;-70
2023/10/19 10:45:50;;;;;;;4.20;3.90;;;10.70;95.70;;;12.20;71.65;99515.25;3080274;46;20427;-67
2023/10/19 10:48:19;;;;;;;5.47;3.67;;;10.70;95.60;;;12.19;71.67;99513.63;3080497;46;20528;-69
2023/10/19 10:50:47;;;;;;;5.20;4.70;;;10.60;95.60;;;12.20;71.98;99511.78;3080913;46;20581;-67